createdAt,value
2022-11-08T00:00:13.965Z,10.90
2022-11-08T00:02:40.923Z,10.90
2022-11-08T00:05:26.185Z,10.90
2022-11-08T00:08:22.326Z,10.80
2022-11-08T00:11:15.778Z,10.80
2022-11-08T00:13:58.368Z,10.80
2022-11-08T00:16:25.728Z,10.80
2022-11-08T00:18:52.374Z,10.80
2022-11-08T00:21:19.059Z,10.70
2022-11-08T00:23:46.923Z,10.80
2022-11-08T00:26:13.600Z,10.80
2022-11-08T00:28:40.299Z,10.70
2022-11-08T00:31:07.435Z,10.70
2022-11-08T00:33:34.168Z,10.70
2022-11-08T00:36:02.033Z,10.70
2022-11-08T00:38:28.690Z,10.70
2022-11-08T00:40:55.467Z,10.70
2022-11-08T00:43:22.386Z,10.70
2022-11-08T00:45:49.055Z,10.70
2022-11-08T00:48:16.049Z,10.60
2022-11-08T00:50:42.912Z,10.70
2022-11-08T00:53:09.560Z,10.60
2022-11-08T00:55:36.238Z,10.60
2022-11-08T00:58:04.055Z,10.60
2022-11-08T01:00:31.288Z,10.60
2022-11-08T01:03:16.816Z,10.60
2022-11-08T01:05:43.486Z,10.60
2022-11-08T01:08:11.690Z,10.60
2022-11-08T01:10:42.575Z,10.60
2022-11-08T01:13:09.627Z,10.60
2022-11-08T01:15:38.242Z,10.60
2022-11-08T01:18:05.144Z,10.60
2022-11-08T01:20:32.096Z,10.60
2022-11-08T01:23:01.601Z,10.60
2022-11-08T01:25:28.226Z,10.60
2022-11-08T01:27:54.885Z,10.60
2022-11-08T01:30:24.657Z,10.60
2022-11-08T01:32:51.296Z,10.60
2022-11-08T01:35:18.004Z,10.60
2022-11-08T01:37:44.647Z,10.60
2022-11-08T01:40:11.570Z,10.50
2022-11-08T01:42:38.212Z,10.50
2022-11-08T01:45:07.892Z,10.50
2022-11-08T01:47:37.249Z,10.40
2022-11-08T01:50:18.704Z,10.40
2022-11-08T01:52:52.464Z,10.40
2022-11-08T01:55:25.931Z,10.40
2022-11-08T01:58:24.586Z,10.40
2022-11-08T02:00:52.350Z,10.50
2022-11-08T02:03:20.817Z,10.40
2022-11-08T02:05:50.624Z,10.40
2022-11-08T02:08:44.143Z,10.40
2022-11-08T02:11:17.300Z,10.40
2022-11-08T02:13:44.184Z,10.30
2022-11-08T02:16:13.968Z,10.50
2022-11-08T02:18:42.684Z,10.30
2022-11-08T02:21:37.003Z,10.30
2022-11-08T02:24:09.453Z,10.20
2022-11-08T02:26:37.450Z,10.20
2022-11-08T02:29:42.561Z,10.20
2022-11-08T02:32:11.173Z,10.20
2022-11-08T02:34:48.147Z,10.10
2022-11-08T02:37:18.458Z,10.10
2022-11-08T02:39:46.239Z,10.20
2022-11-08T02:42:18.575Z,10.20
2022-11-08T02:44:46.232Z,10.20
2022-11-08T02:47:14.917Z,10.20
2022-11-08T02:49:43.071Z,10.20
2022-11-08T02:52:10.058Z,10.20
2022-11-08T02:54:36.796Z,10.20
2022-11-08T02:57:03.605Z,10.20
2022-11-08T02:59:30.265Z,10.20
2022-11-08T03:01:57.015Z,10.20
2022-11-08T03:04:23.893Z,10.20
2022-11-08T03:06:50.540Z,10.20
2022-11-08T03:09:17.314Z,10.20
2022-11-08T03:11:43.970Z,10.20
2022-11-08T03:14:10.686Z,10.20
2022-11-08T03:16:37.378Z,10.30
2022-11-08T03:19:04.024Z,10.20
2022-11-08T03:21:30.729Z,10.10
2022-11-08T03:23:57.455Z,10.10
2022-11-08T03:26:24.193Z,10.00
2022-11-08T03:28:50.824Z,10.00
2022-11-08T03:31:17.501Z,10.00
2022-11-08T03:33:44.171Z,10.00
2022-11-08T03:36:10.849Z,10.00
2022-11-08T03:38:37.490Z,10.00
2022-11-08T03:41:04.239Z,9.90
2022-11-08T03:43:30.888Z,9.90
2022-11-08T03:45:57.546Z,9.90
2022-11-08T03:48:24.203Z,9.90
2022-11-08T03:50:51.873Z,9.90
2022-11-08T03:53:18.931Z,9.90
2022-11-08T03:55:45.633Z,9.90
2022-11-08T03:58:12.458Z,9.90
2022-11-08T04:00:39.367Z,9.90
2022-11-08T04:03:06.229Z,9.80
2022-11-08T04:05:32.961Z,9.90
2022-11-08T04:08:01.137Z,9.80
2022-11-08T04:10:28.005Z,9.80
2022-11-08T04:13:13.527Z,9.80
2022-11-08T04:15:40.432Z,9.80
2022-11-08T04:18:28.816Z,9.80
2022-11-08T04:21:17.660Z,9.80
2022-11-08T04:23:45.016Z,9.90
2022-11-08T04:26:11.925Z,9.80
2022-11-08T04:28:40.756Z,9.80
2022-11-08T04:31:11.043Z,9.70
2022-11-08T04:33:40.489Z,9.70
2022-11-08T04:36:10.591Z,9.70
2022-11-08T04:38:37.423Z,9.70
2022-11-08T04:41:12.295Z,9.70
2022-11-08T04:43:39.524Z,9.70
2022-11-08T04:46:11.619Z,9.70
2022-11-08T04:48:38.454Z,9.60
2022-11-08T04:51:14.118Z,9.70
2022-11-08T04:53:41.020Z,9.60
2022-11-08T04:56:14.112Z,9.60
2022-11-08T04:58:46.481Z,9.60
2022-11-08T05:01:16.576Z,9.60
2022-11-08T05:03:45.346Z,9.60
2022-11-08T05:06:16.306Z,9.60
2022-11-08T05:08:43.157Z,9.60
2022-11-08T05:11:21.095Z,9.60
2022-11-08T05:13:48.781Z,9.60
2022-11-08T05:16:29.250Z,9.60
2022-11-08T05:18:56.325Z,9.60
2022-11-08T05:21:42.419Z,9.60
2022-11-08T05:24:13.463Z,9.60
2022-11-08T05:26:44.446Z,9.60
2022-11-08T05:29:12.480Z,9.50
2022-11-08T05:31:39.416Z,9.50
2022-11-08T05:34:07.352Z,9.50
2022-11-08T05:36:34.149Z,9.50
2022-11-08T05:39:03.709Z,9.50
2022-11-08T05:41:30.380Z,9.50
2022-11-08T05:43:57.458Z,9.50
2022-11-08T05:46:24.431Z,9.50
2022-11-08T05:48:52.309Z,9.50
2022-11-08T05:51:20.236Z,9.50
2022-11-08T05:53:48.480Z,9.50
2022-11-08T05:56:15.223Z,9.50
2022-11-08T05:58:41.861Z,9.40
2022-11-08T06:01:17.754Z,9.40
2022-11-08T06:03:45.295Z,9.40
2022-11-08T06:06:14.638Z,9.40
2022-11-08T06:08:45.003Z,9.40
2022-11-08T06:11:17.352Z,9.40
2022-11-08T06:13:44.185Z,9.40
2022-11-08T06:16:13.519Z,9.40
2022-11-08T06:18:41.378Z,9.40
2022-11-08T06:21:13.054Z,9.40
2022-11-08T06:23:42.124Z,9.40
2022-11-08T06:26:09.256Z,9.40
2022-11-08T06:28:36.375Z,9.40
2022-11-08T06:31:05.044Z,9.30
2022-11-08T06:33:32.255Z,9.30
2022-11-08T06:35:59.216Z,9.30
2022-11-08T06:38:25.998Z,9.30
2022-11-08T06:40:52.738Z,9.30
2022-11-08T06:43:20.412Z,9.30
2022-11-08T06:45:47.707Z,9.30
2022-11-08T06:48:14.759Z,9.30
2022-11-08T06:50:43.239Z,9.40
2022-11-08T06:53:12.760Z,9.40
2022-11-08T06:55:40.088Z,9.40
2022-11-08T06:58:06.996Z,9.40
2022-11-08T07:00:33.778Z,9.30
2022-11-08T07:03:02.471Z,9.40
2022-11-08T07:05:32.499Z,9.30
2022-11-08T07:08:00.631Z,9.40
2022-11-08T07:10:30.177Z,9.40
2022-11-08T07:13:02.104Z,9.40
2022-11-08T07:15:30.027Z,9.40
2022-11-08T07:18:06.663Z,9.40
2022-11-08T07:20:33.575Z,9.40
2022-11-08T07:23:00.466Z,9.40
2022-11-08T07:25:28.769Z,9.40
2022-11-08T07:28:04.857Z,9.50
2022-11-08T07:30:32.589Z,9.50
2022-11-08T07:32:59.381Z,9.50
2022-11-08T07:35:27.731Z,9.50
2022-11-08T07:37:55.701Z,9.60
2022-11-08T07:40:22.851Z,9.60
2022-11-08T07:43:10.802Z,9.60
2022-11-08T07:45:36.365Z,9.60
2022-11-08T07:48:11.901Z,9.70
2022-11-08T07:50:40.188Z,9.70
2022-11-08T07:53:07.109Z,9.70
2022-11-08T07:55:36.381Z,9.70
2022-11-08T07:58:03.696Z,9.80
2022-11-08T08:00:31.435Z,9.80
2022-11-08T08:03:02.822Z,9.90
2022-11-08T08:05:33.273Z,9.90
2022-11-08T08:08:01.912Z,10.00
2022-11-08T08:10:29.130Z,9.90
2022-11-08T08:12:56.812Z,9.90
2022-11-08T08:15:24.027Z,9.90
2022-11-08T08:17:50.752Z,9.90
2022-11-08T08:20:17.736Z,9.90
2022-11-08T08:22:49.365Z,9.90
2022-11-08T08:25:16.831Z,9.90
2022-11-08T08:27:51.780Z,10.00
2022-11-08T08:30:19.537Z,10.00
2022-11-08T08:32:53.547Z,10.00
2022-11-08T08:35:29.562Z,10.10
2022-11-08T08:38:00.589Z,10.10
2022-11-08T08:40:27.742Z,10.20
2022-11-08T08:42:54.991Z,10.20
2022-11-08T08:45:21.695Z,10.30
2022-11-08T08:47:52.942Z,10.30
2022-11-08T08:50:20.259Z,10.30
2022-11-08T08:52:47.228Z,10.30
2022-11-08T08:55:16.490Z,10.30
2022-11-08T08:57:47.642Z,10.30
2022-11-08T09:03:07.811Z,10.30
2022-11-08T09:05:35.787Z,10.30
2022-11-08T09:08:03.582Z,10.40
2022-11-08T09:10:30.370Z,10.40
2022-11-08T09:12:57.051Z,10.60
2022-11-08T09:15:23.809Z,10.50
2022-11-08T09:17:54.963Z,10.60
2022-11-08T09:20:21.895Z,10.60
2022-11-08T09:22:48.940Z,10.60
2022-11-08T09:25:15.634Z,10.70
2022-11-08T09:27:42.291Z,10.70
2022-11-08T09:30:09.328Z,10.70
2022-11-08T09:32:59.244Z,10.80
2022-11-08T09:35:23.382Z,10.80
2022-11-08T09:37:52.342Z,10.70
2022-11-08T09:40:24.405Z,10.70
2022-11-08T09:43:06.888Z,10.70
2022-11-08T09:45:47.863Z,10.80
2022-11-08T09:48:28.164Z,10.80
2022-11-08T09:50:56.836Z,10.90
2022-11-08T09:53:36.656Z,11.00
2022-11-08T09:56:17.174Z,11.10
2022-11-08T09:58:54.732Z,11.10
2022-11-08T10:01:27.011Z,11.10
2022-11-08T10:03:57.699Z,11.10
2022-11-08T10:06:34.728Z,11.20
2022-11-08T10:09:13.174Z,11.20
2022-11-08T10:12:08.630Z,11.20
2022-11-08T10:14:54.783Z,11.20
2022-11-08T10:17:59.647Z,11.20
2022-11-08T10:20:47.529Z,11.30
2022-11-08T10:23:43.448Z,11.30
2022-11-08T10:26:16.234Z,11.30
2022-11-08T10:28:50.455Z,11.40
2022-11-08T10:31:19.891Z,11.40
2022-11-08T10:33:52.894Z,11.40
2022-11-08T10:36:38.383Z,11.40
2022-11-08T10:39:21.184Z,11.40
2022-11-08T10:41:59.987Z,11.40
2022-11-08T10:44:28.885Z,11.50
2022-11-08T10:47:03.088Z,11.50
2022-11-08T10:49:37.241Z,11.50
2022-11-08T10:52:12.778Z,11.50
2022-11-08T10:54:42.647Z,11.50
2022-11-08T10:57:11.343Z,11.50
2022-11-08T10:59:38.111Z,11.60
2022-11-08T11:02:18.946Z,11.60
2022-11-08T11:04:45.956Z,11.60
2022-11-08T11:07:57.586Z,11.60
2022-11-08T11:10:34.787Z,11.70
2022-11-08T11:13:20.765Z,11.70
2022-11-08T11:15:55.102Z,11.80
2022-11-08T11:18:24.699Z,11.80
2022-11-08T11:21:18.753Z,11.90
2022-11-08T11:23:54.671Z,12.00
2022-11-08T11:26:29.301Z,12.00
2022-11-08T11:29:04.797Z,12.00
2022-11-08T11:31:35.513Z,12.10
2022-11-08T11:34:33.250Z,12.10
2022-11-08T11:37:17.384Z,12.20
2022-11-08T11:40:02.558Z,12.30
2022-11-08T11:42:46.294Z,12.30
2022-11-08T11:45:16.754Z,12.30
2022-11-08T11:47:54.235Z,12.50
2022-11-08T11:50:24.074Z,12.50
2022-11-08T11:52:50.746Z,12.60
2022-11-08T11:55:18.009Z,12.60
2022-11-08T11:57:56.452Z,12.60
2022-11-08T12:00:23.563Z,12.70
2022-11-08T12:03:15.611Z,12.70
2022-11-08T12:06:06.099Z,12.70
2022-11-08T12:09:14.318Z,12.80
2022-11-08T12:12:03.725Z,12.70
2022-11-08T12:14:55.910Z,12.80
2022-11-08T12:17:25.740Z,12.80
2022-11-08T12:20:26.838Z,12.80
2022-11-08T12:23:00.104Z,12.80
2022-11-08T12:25:35.432Z,12.80
2022-11-08T12:28:25.146Z,12.80
2022-11-08T12:31:08.951Z,12.80
2022-11-08T12:33:55.217Z,12.80
2022-11-08T12:36:37.231Z,12.80
2022-11-08T12:39:35.694Z,12.80
2022-11-08T12:42:30.140Z,12.80
2022-11-08T12:45:20.871Z,12.80
2022-11-08T12:48:25.281Z,12.80
2022-11-08T12:51:05.701Z,12.80
2022-11-08T12:53:41.608Z,12.80
2022-11-08T12:56:27.451Z,12.80
2022-11-08T12:58:55.332Z,12.80
2022-11-08T13:01:23.348Z,12.80
2022-11-08T13:04:38.746Z,12.80
2022-11-08T13:07:22.254Z,12.80
2022-11-08T13:10:00.551Z,12.80
2022-11-08T13:12:56.792Z,12.80
2022-11-08T13:15:25.243Z,12.80
2022-11-08T13:18:23.089Z,12.90
2022-11-08T13:20:50.400Z,12.90
2022-11-08T13:23:30.982Z,12.90
2022-11-08T13:26:27.248Z,12.90
2022-11-08T13:28:54.004Z,12.90
2022-11-08T13:31:41.958Z,12.80
2022-11-08T13:34:36.983Z,12.80
2022-11-08T13:37:48.383Z,12.80
2022-11-08T13:40:32.447Z,12.80
2022-11-08T13:43:31.834Z,12.80
2022-11-08T13:46:20.090Z,12.80
2022-11-08T13:49:05.938Z,12.90
2022-11-08T13:51:39.714Z,12.90
2022-11-08T13:54:21.712Z,13.10
2022-11-08T13:56:51.989Z,13.30
2022-11-08T13:59:44.894Z,13.40
2022-11-08T14:02:23.423Z,13.70
2022-11-08T14:04:51.447Z,13.80
2022-11-08T14:07:37.299Z,13.80
2022-11-08T14:10:12.161Z,13.70
2022-11-08T14:13:10.525Z,13.50
2022-11-08T14:15:44.424Z,13.50
2022-11-08T14:18:29.640Z,13.40
2022-11-08T14:20:56.677Z,13.30
2022-11-08T14:23:30.965Z,13.30
2022-11-08T14:26:17.655Z,13.20
2022-11-08T14:28:46.286Z,13.20
2022-11-08T14:31:26.794Z,13.20
2022-11-08T14:33:55.005Z,13.20
2022-11-08T14:36:23.126Z,13.20
2022-11-08T14:39:09.811Z,13.20
2022-11-08T14:41:36.778Z,13.20
2022-11-08T14:44:04.838Z,13.20
2022-11-08T14:46:33.033Z,13.20
2022-11-08T14:49:09.092Z,13.20
2022-11-08T14:51:35.913Z,13.10
2022-11-08T14:54:02.580Z,13.10
2022-11-08T14:56:37.870Z,13.10
2022-11-08T14:59:06.830Z,13.10
2022-11-08T15:01:35.492Z,13.10
2022-11-08T15:04:06.469Z,13.10
2022-11-08T15:06:45.606Z,13.00
2022-11-08T15:09:24.387Z,13.00
2022-11-08T15:11:55.553Z,13.00
2022-11-08T15:14:25.422Z,13.00
2022-11-08T15:16:58.658Z,13.00
2022-11-08T15:19:34.077Z,13.00
2022-11-08T15:22:03.749Z,13.00
2022-11-08T15:24:40.697Z,13.10
2022-11-08T15:27:10.327Z,13.00
2022-11-08T15:29:53.489Z,13.00
2022-11-08T15:32:22.136Z,13.00
2022-11-08T15:34:52.804Z,13.00
2022-11-08T15:37:27.599Z,12.90
2022-11-08T15:39:55.368Z,13.00
2022-11-08T15:42:22.275Z,12.90
2022-11-08T15:45:24.054Z,13.00
2022-11-08T15:47:50.711Z,12.90
2022-11-08T15:50:17.414Z,12.80
2022-11-08T15:52:44.995Z,12.80
2022-11-08T15:55:36.638Z,12.80
2022-11-08T15:58:04.631Z,12.80
2022-11-08T16:00:36.239Z,12.80
2022-11-08T16:03:03.132Z,12.80
2022-11-08T16:05:32.066Z,12.70
2022-11-08T16:07:59.357Z,12.70
2022-11-08T16:10:37.080Z,12.70
2022-11-08T16:13:05.132Z,12.70
2022-11-08T16:15:34.181Z,12.70
2022-11-08T16:18:02.121Z,12.60
2022-11-08T16:20:35.562Z,12.60
2022-11-08T16:23:04.631Z,12.60
2022-11-08T16:25:35.489Z,12.60
2022-11-08T16:28:17.185Z,12.70
2022-11-08T16:30:46.814Z,12.60
2022-11-08T16:33:27.261Z,12.50
2022-11-08T16:35:55.826Z,12.60
2022-11-08T16:38:36.573Z,12.50
2022-11-08T16:41:04.810Z,12.50
2022-11-08T16:43:31.783Z,12.50
2022-11-08T16:46:05.970Z,12.50
2022-11-08T16:48:36.469Z,12.50
2022-11-08T16:51:06.188Z,12.50
2022-11-08T16:53:33.237Z,12.50
2022-11-08T16:56:00.142Z,12.50
2022-11-08T16:58:28.024Z,12.50
2022-11-08T17:00:55.798Z,12.50
2022-11-08T17:03:25.656Z,12.50
2022-11-08T17:05:53.952Z,12.40
2022-11-08T17:08:21.478Z,12.40
2022-11-08T17:10:48.598Z,12.40
2022-11-08T17:13:17.479Z,12.40
2022-11-08T17:15:44.633Z,12.40
2022-11-08T17:18:13.941Z,12.40
2022-11-08T17:20:41.057Z,12.40
2022-11-08T17:23:09.036Z,12.40
2022-11-08T17:25:37.637Z,12.40
2022-11-08T17:28:04.929Z,12.40
2022-11-08T17:30:31.896Z,12.40
2022-11-08T17:32:58.696Z,12.30
2022-11-08T17:35:25.899Z,12.30
2022-11-08T17:37:53.606Z,12.30
2022-11-08T17:40:20.556Z,12.30
2022-11-08T17:42:47.229Z,12.30
2022-11-08T17:45:17.125Z,12.30
2022-11-08T17:47:43.789Z,12.30
2022-11-08T17:50:10.837Z,12.30
2022-11-08T17:52:37.809Z,12.30
2022-11-08T17:55:05.211Z,12.30
2022-11-08T17:57:32.411Z,12.30
2022-11-08T17:59:59.460Z,12.30
2022-11-08T18:02:27.347Z,12.30
2022-11-08T18:04:54.691Z,12.30
2022-11-08T18:07:21.634Z,12.30
2022-11-08T18:09:48.444Z,12.30
2022-11-08T18:12:15.124Z,12.30
2022-11-08T18:14:41.800Z,12.30
2022-11-08T18:17:08.504Z,12.30
2022-11-08T18:19:35.722Z,12.30
2022-11-08T18:22:04.747Z,12.30
2022-11-08T18:24:31.605Z,12.20
2022-11-08T18:26:58.669Z,12.20
2022-11-08T18:29:25.426Z,12.20
2022-11-08T18:31:52.158Z,12.20
2022-11-08T18:34:18.896Z,12.20
2022-11-08T18:36:48.104Z,12.10
2022-11-08T18:39:18.411Z,12.10
2022-11-08T18:41:46.692Z,12.10
2022-11-08T18:44:13.396Z,12.10
2022-11-08T18:46:43.203Z,12.10
2022-11-08T18:49:10.732Z,12.10
2022-11-08T18:51:37.428Z,12.00
2022-11-08T18:54:04.194Z,12.00
2022-11-08T18:56:30.899Z,12.00
2022-11-08T18:58:57.911Z,12.00
2022-11-08T19:01:25.070Z,12.00
2022-11-08T19:03:51.806Z,12.00
2022-11-08T19:06:19.510Z,12.00
2022-11-08T19:08:46.352Z,12.00
2022-11-08T19:11:14.379Z,11.90
2022-11-08T19:13:41.207Z,12.00
2022-11-08T19:16:16.975Z,12.00
2022-11-08T19:18:45.018Z,11.90
2022-11-08T19:21:20.238Z,11.90
2022-11-08T19:23:47.565Z,11.90
2022-11-08T19:26:17.652Z,11.90
2022-11-08T19:28:45.893Z,11.90
2022-11-08T19:31:14.847Z,11.90
2022-11-08T19:33:41.667Z,11.90
2022-11-08T19:36:14.591Z,11.90
2022-11-08T19:38:42.113Z,11.90
2022-11-08T19:41:11.410Z,11.90
2022-11-08T19:43:39.237Z,11.90
2022-11-08T19:46:08.445Z,11.90
2022-11-08T19:48:38.362Z,11.90
2022-11-08T19:51:13.546Z,11.90
2022-11-08T19:53:41.114Z,11.90
2022-11-08T19:56:10.545Z,11.90
2022-11-08T19:58:38.398Z,11.90
2022-11-08T20:01:17.673Z,11.90
2022-11-08T20:03:45.216Z,11.90
2022-11-08T20:06:13.821Z,11.80
2022-11-08T20:08:40.602Z,11.80
2022-11-08T20:11:15.934Z,11.80
2022-11-08T20:13:44.233Z,11.90
2022-11-08T20:16:21.483Z,11.80
2022-11-08T20:18:48.281Z,11.80
2022-11-08T20:21:16.893Z,11.80
2022-11-08T20:23:44.425Z,11.80
2022-11-08T20:26:21.571Z,11.80
2022-11-08T20:28:56.039Z,11.80
2022-11-08T20:31:23.663Z,11.80
2022-11-08T20:33:53.115Z,11.80
2022-11-08T20:36:22.476Z,11.80
2022-11-08T20:38:50.227Z,11.80
2022-11-08T20:41:17.915Z,11.70
2022-11-08T20:43:46.771Z,11.70
2022-11-08T20:46:21.001Z,11.70
2022-11-08T20:48:51.935Z,11.70
2022-11-08T20:51:20.741Z,11.70
2022-11-08T20:53:48.516Z,11.70
2022-11-08T20:56:22.504Z,11.70
2022-11-08T20:58:50.556Z,11.70
2022-11-08T21:01:23.194Z,11.70
2022-11-08T21:03:51.139Z,11.70
2022-11-08T21:06:20.311Z,11.70
2022-11-08T21:09:10.232Z,11.70
2022-11-08T21:11:37.049Z,11.70
2022-11-08T21:14:04.347Z,11.70
2022-11-08T21:16:42.357Z,11.60
2022-11-08T21:19:13.990Z,11.60
2022-11-08T21:21:40.731Z,11.60
2022-11-08T21:24:07.801Z,11.60
2022-11-08T21:26:36.466Z,11.60
2022-11-08T21:29:04.377Z,11.60
2022-11-08T21:31:31.131Z,11.60
2022-11-08T21:33:58.282Z,11.60
2022-11-08T21:36:26.884Z,11.60
2022-11-08T21:38:54.193Z,11.60
2022-11-08T21:41:21.125Z,11.60
2022-11-08T21:43:47.874Z,11.60
2022-11-08T21:46:23.744Z,11.60
2022-11-08T21:48:58.121Z,11.60
2022-11-08T21:51:26.556Z,11.60
2022-11-08T21:53:55.562Z,11.60
2022-11-08T21:56:24.744Z,11.60
2022-11-08T21:58:51.707Z,11.60
2022-11-08T22:01:18.823Z,11.50
2022-11-08T22:03:46.659Z,11.60
2022-11-08T22:06:13.591Z,11.50
2022-11-08T22:08:40.239Z,11.50
2022-11-08T22:11:07.190Z,11.50
2022-11-08T22:13:33.986Z,11.50
2022-11-08T22:16:00.830Z,11.40
2022-11-08T22:18:43.485Z,11.50
2022-11-08T22:21:33.230Z,11.50
2022-11-08T22:23:59.913Z,11.50
2022-11-08T22:26:26.580Z,11.50
2022-11-08T22:28:53.267Z,11.50
2022-11-08T22:31:19.902Z,11.50
2022-11-08T22:33:46.680Z,11.50
2022-11-08T22:36:13.442Z,11.50
2022-11-08T22:38:40.357Z,11.50
2022-11-08T22:41:07.691Z,11.40
2022-11-08T22:43:35.725Z,11.50
2022-11-08T22:46:02.714Z,11.50
2022-11-08T22:48:29.405Z,11.50
2022-11-08T22:50:56.223Z,11.40
2022-11-08T22:53:23.019Z,11.40
2022-11-08T22:55:49.828Z,11.40
2022-11-08T22:58:16.547Z,11.40
2022-11-08T23:01:00.976Z,11.40
2022-11-08T23:03:27.709Z,11.40
2022-11-08T23:05:56.033Z,11.40
2022-11-08T23:08:25.381Z,11.40
2022-11-08T23:11:30.902Z,11.40
2022-11-08T23:14:16.410Z,11.40
2022-11-08T23:16:45.316Z,11.40
2022-11-08T23:19:35.250Z,11.40
2022-11-08T23:22:22.586Z,11.40
2022-11-08T23:24:49.327Z,11.40
2022-11-08T23:27:36.036Z,11.40
2022-11-08T23:30:22.402Z,11.40
2022-11-08T23:32:50.477Z,11.40
2022-11-08T23:35:19.095Z,11.40
2022-11-08T23:37:46.397Z,11.30
2022-11-08T23:40:33.805Z,11.30
2022-11-08T23:43:35.097Z,11.30
2022-11-08T23:46:10.086Z,11.30
2022-11-08T23:48:38.233Z,11.30
2022-11-08T23:51:06.157Z,11.30
2022-11-08T23:53:34.672Z,11.30
2022-11-08T23:56:01.460Z,11.40
2022-11-08T23:58:28.292Z,11.40
